sensor_id;sensor_type;location;lat;lon;timestamp;P1;durP1;ratioP1;P2;durP2;ratioP2
64065;SDS011;50318;54.760;9.408;2022-10-13T10:26:54;45.20;;;26.40;;
64065;SDS011;50318;54.760;9.408;2022-10-13T10:29:28;52.22;;;27.50;;
64065;SDS011;50318;54.760;9.408;2022-10-13T10:32:19;46.95;;;27.27;;
64065;SDS011;50318;54.760;9.408;2022-10-13T10:34:56;48.78;;;29.38;;
64065;SDS011;50318;54.760;9.408;2022-10-13T10:40:25;46.88;;;28.75;;
64065;SDS011;50318;54.760;9.408;2022-10-13T10:45:50;45.47;;;29.70;;
64065;SDS011;50318;54.760;9.408;2022-10-13T10:48:20;50.75;;;30.90;;
64065;SDS011;50318;54.760;9.408;2022-10-13T10:50:49;50.72;;;29.83;;
64065;SDS011;50318;54.760;9.408;2022-10-13T10:55:59;53.40;;;31.48;;
64065;SDS011;50318;54.760;9.408;2022-10-13T11:03:53;49.13;;;31.80;;
64065;SDS011;50318;54.760;9.408;2022-10-13T11:06:39;60.50;;;30.88;;
64065;SDS011;50318;54.760;9.408;2022-10-13T11:09:59;49.97;;;31.58;;
64065;SDS011;50318;54.760;9.408;2022-10-13T11:12:39;55.10;;;33.22;;
64065;SDS011;50318;54.760;9.408;2022-10-13T11:15:13;55.85;;;32.58;;
64065;SDS011;50318;54.760;9.408;2022-10-13T11:17:48;61.38;;;33.92;;
64065;SDS011;50318;54.760;9.408;2022-10-13T11:30:54;57.15;;;34.20;;
64065;SDS011;50318;54.760;9.408;2022-10-13T11:38:56;54.72;;;31.73;;
64065;SDS011;50318;54.760;9.408;2022-10-13T11:41:31;57.35;;;32.67;;
64065;SDS011;50318;54.760;9.408;2022-10-13T11:44:13;52.38;;;31.73;;
64065;SDS011;50318;54.760;9.408;2022-10-13T11:46:58;57.47;;;33.58;;
64065;SDS011;50318;54.760;9.408;2022-10-13T11:52:12;55.50;;;32.85;;
64065;SDS011;50318;54.760;9.408;2022-10-13T11:54:54;55.70;;;33.05;;
64065;SDS011;50318;54.760;9.408;2022-10-13T11:57:34;60.55;;;34.92;;
64065;SDS011;50318;54.760;9.408;2022-10-13T12:00:01;58.63;;;34.80;;
64065;SDS011;50318;54.760;9.408;2022-10-13T12:02:45;57.58;;;36.58;;
64065;SDS011;50318;54.760;9.408;2022-10-13T12:05:20;56.95;;;34.50;;
64065;SDS011;50318;54.760;9.408;2022-10-13T12:07:48;65.13;;;36.15;;
64065;SDS011;50318;54.760;9.408;2022-10-13T12:10:19;59.47;;;35.70;;
64065;SDS011;50318;54.760;9.408;2022-10-13T12:13:22;66.28;;;38.17;;
64065;SDS011;50318;54.760;9.408;2022-10-13T12:16:10;64.30;;;36.83;;
64065;SDS011;50318;54.760;9.408;2022-10-13T12:18:39;60.58;;;37.20;;
64065;SDS011;50318;54.760;9.408;2022-10-13T12:21:10;68.07;;;37.50;;
64065;SDS011;50318;54.760;9.408;2022-10-13T12:23:39;65.93;;;37.17;;
64065;SDS011;50318;54.760;9.408;2022-10-13T12:26:15;62.30;;;37.03;;
64065;SDS011;50318;54.760;9.408;2022-10-13T12:28:48;64.30;;;37.17;;
64065;SDS011;50318;54.760;9.408;2022-10-13T12:31:23;66.78;;;37.85;;
64065;SDS011;50318;54.760;9.408;2022-10-13T12:33:52;73.07;;;37.22;;
64065;SDS011;50318;54.760;9.408;2022-10-13T12:36:29;65.85;;;38.10;;
64065;SDS011;50318;54.760;9.408;2022-10-13T12:38:58;70.47;;;41.47;;
64065;SDS011;50318;54.760;9.408;2022-10-13T12:41:35;74.90;;;41.17;;
64065;SDS011;50318;54.760;9.408;2022-10-13T12:44:05;66.55;;;38.08;;
64065;SDS011;50318;54.760;9.408;2022-10-13T12:49:19;65.03;;;36.50;;
64065;SDS011;50318;54.760;9.408;2022-10-13T12:52:14;66.20;;;39.85;;
64065;SDS011;50318;54.760;9.408;2022-10-13T12:57:19;76.18;;;47.40;;
64065;SDS011;50318;54.760;9.408;2022-10-13T12:59:46;81.95;;;51.85;;
64065;SDS011;50318;54.760;9.408;2022-10-13T13:02:20;64.75;;;43.78;;
64065;SDS011;50318;54.760;9.408;2022-10-13T13:04:49;65.28;;;39.47;;
64065;SDS011;50318;54.760;9.408;2022-10-13T13:07:29;59.67;;;38.15;;
64065;SDS011;50318;54.760;9.408;2022-10-13T13:12:39;63.25;;;38.22;;
64065;SDS011;50318;54.760;9.408;2022-10-13T13:15:16;57.67;;;38.92;;
64065;SDS011;50318;54.760;9.408;2022-10-13T13:17:43;59.20;;;36.42;;
64065;SDS011;50318;54.760;9.408;2022-10-13T13:20:23;62.17;;;36.83;;
64065;SDS011;50318;54.760;9.408;2022-10-13T13:22:55;61.87;;;36.73;;
64065;SDS011;50318;54.760;9.408;2022-10-13T13:25:21;59.17;;;36.10;;
64065;SDS011;50318;54.760;9.408;2022-10-13T13:27:47;61.88;;;37.78;;
64065;SDS011;50318;54.760;9.408;2022-10-13T13:30:17;58.35;;;37.60;;
64065;SDS011;50318;54.760;9.408;2022-10-13T13:32:44;60.30;;;37.72;;
64065;SDS011;50318;54.760;9.408;2022-10-13T13:35:10;62.40;;;39.50;;
64065;SDS011;50318;54.760;9.408;2022-10-13T13:37:40;111.72;;;82.43;;
64065;SDS011;50318;54.760;9.408;2022-10-13T13:40:13;75.80;;;52.67;;
64065;SDS011;50318;54.760;9.408;2022-10-13T13:42:41;66.95;;;44.92;;
64065;SDS011;50318;54.760;9.408;2022-10-13T13:45:10;69.72;;;42.65;;
64065;SDS011;50318;54.760;9.408;2022-10-13T13:47:38;59.15;;;40.45;;
64065;SDS011;50318;54.760;9.408;2022-10-13T13:52:48;58.55;;;37.42;;
64065;SDS011;50318;54.760;9.408;2022-10-13T13:55:14;61.75;;;39.22;;
64065;SDS011;50318;54.760;9.408;2022-10-13T13:58:03;61.97;;;39.55;;
64065;SDS011;50318;54.760;9.408;2022-10-13T20:30:23;64.10;;;39.72;;
64065;SDS011;50318;54.760;9.408;2022-10-13T20:32:49;57.90;;;38.10;;
64065;SDS011;50318;54.760;9.408;2022-10-13T20:35:15;66.55;;;40.72;;
64065;SDS011;50318;54.760;9.408;2022-10-13T20:37:59;64.05;;;39.78;;
64065;SDS011;50318;54.760;9.408;2022-10-13T20:40:25;68.68;;;40.13;;
64065;SDS011;50318;54.760;9.408;2022-10-13T20:42:51;68.82;;;41.78;;
64065;SDS011;50318;54.760;9.408;2022-10-13T20:45:19;70.13;;;43.75;;
64065;SDS011;50318;54.760;9.408;2022-10-13T20:47:44;68.15;;;41.53;;
64065;SDS011;50318;54.760;9.408;2022-10-13T20:50:11;78.60;;;45.40;;
64065;SDS011;50318;54.760;9.408;2022-10-13T20:52:36;67.18;;;42.65;;
64065;SDS011;50318;54.760;9.408;2022-10-13T20:55:02;72.05;;;44.42;;
64065;SDS011;50318;54.760;9.408;2022-10-13T20:57:29;65.38;;;39.42;;
64065;SDS011;50318;54.760;9.408;2022-10-13T20:59:55;66.78;;;37.38;;
64065;SDS011;50318;54.760;9.408;2022-10-13T21:02:21;60.58;;;36.85;;
64065;SDS011;50318;54.760;9.408;2022-10-13T21:05:06;64.30;;;38.65;;
64065;SDS011;50318;54.760;9.408;2022-10-13T21:07:32;65.82;;;37.10;;
64065;SDS011;50318;54.760;9.408;2022-10-13T21:09:58;63.67;;;35.75;;
64065;SDS011;50318;54.760;9.408;2022-10-13T21:12:24;65.20;;;37.78;;
64065;SDS011;50318;54.760;9.408;2022-10-13T21:14:50;72.43;;;39.00;;
64065;SDS011;50318;54.760;9.408;2022-10-13T22:30:40;54.33;;;30.65;;
64065;SDS011;50318;54.760;9.408;2022-10-13T22:33:08;68.95;;;36.20;;
64065;SDS011;50318;54.760;9.408;2022-10-13T22:35:34;73.57;;;38.20;;
64065;SDS011;50318;54.760;9.408;2022-10-13T22:38:00;68.95;;;39.22;;
64065;SDS011;50318;54.760;9.408;2022-10-13T22:40:26;76.72;;;39.92;;
64065;SDS011;50318;54.760;9.408;2022-10-13T22:43:11;79.57;;;40.42;;
64065;SDS011;50318;54.760;9.408;2022-10-13T22:45:37;86.18;;;42.47;;
64065;SDS011;50318;54.760;9.408;2022-10-13T22:48:23;88.75;;;44.45;;
64065;SDS011;50318;54.760;9.408;2022-10-13T22:50:49;91.97;;;46.33;;
64065;SDS011;50318;54.760;9.408;2022-10-13T22:53:14;104.97;;;50.13;;
64065;SDS011;50318;54.760;9.408;2022-10-13T22:55:40;105.07;;;50.40;;
64065;SDS011;50318;54.760;9.408;2022-10-13T22:58:06;109.97;;;53.60;;
64065;SDS011;50318;54.760;9.408;2022-10-13T23:00:33;124.38;;;57.00;;
64065;SDS011;50318;54.760;9.408;2022-10-13T23:03:00;121.82;;;53.15;;
64065;SDS011;50318;54.760;9.408;2022-10-13T23:05:25;145.10;;;49.15;;
64065;SDS011;50318;54.760;9.408;2022-10-13T23:07:51;159.73;;;49.65;;
64065;SDS011;50318;54.760;9.408;2022-10-13T23:10:17;127.15;;;48.55;;
64065;SDS011;50318;54.760;9.408;2022-10-13T23:12:42;139.15;;;48.05;;
64065;SDS011;50318;54.760;9.408;2022-10-13T23:15:08;239.10;;;51.22;;
64065;SDS011;50318;54.760;9.408;2022-10-13T23:17:34;181.32;;;47.53;;
64065;SDS011;50318;54.760;9.408;2022-10-13T23:20:00;137.00;;;46.60;;
